Time;durP1;ratioP1;P1;durP2;ratioP2;P2;SDS_P1;SDS_P2;PMS_P1;PMS_P2;Temp;Humidity;BMP_temperature;BMP_pressure;BME280_temperature;BME280_humidity;BME280_pressure;Samples;Min_cycle;Max_cycle;Signal;HPM_P1;HPM_P2
2022/08/05 07:40:50;;;;;;;;;;;;;;;14.13;100.00;99543.41;6239955;23;19945;-89
2022/08/05 07:43:16;;;;;;;;;;;;;;;14.11;100.00;99513.34;6246548;23;20378;-87
2022/08/05 07:45:42;;;;;;;;;;;;;;;14.08;100.00;99490.41;6219528;23;19915;-88
2022/08/05 07:48:08;;;;;;;;;;;;;;;13.94;100.00;99485.94;6219725;23;19916;-87
2022/08/05 07:50:33;;;;;;;;;;;;;;;14.09;100.00;99492.13;6219975;23;19911;-88
2022/08/05 07:52:58;;;;;;;;;;;;;;;14.06;100.00;99518.97;6244315;23;19912;-89
2022/08/05 07:55:24;;;;;;;;;;;;;;;14.01;100.00;99545.03;6219074;23;19916;-89
2022/08/05 07:57:50;;;;;;;;;;;;;;;13.99;100.00;99555.78;6246500;23;19997;-90
2022/08/05 08:00:15;;;;;;;;;;;;;;;14.20;100.00;99565.22;6219932;23;19911;-89
2022/08/05 08:02:43;;;;;;;;;;;;;;;14.12;100.00;99547.91;6246509;23;20351;-89
2022/08/05 08:05:08;;;;;;;;;;;;;;;13.96;100.00;99542.66;6245230;23;19998;-88
2022/08/05 08:07:33;;;;;;;;;;;;;;;13.98;100.00;99524.75;6217763;23;20311;-90
2022/08/05 08:09:59;;;;;;;;;;;;;;;14.11;100.00;99502.69;6246722;23;19912;-89
2022/08/05 08:12:25;;;;;;;;;;;;;;;14.10;100.00;99516.97;6246106;23;19919;-89
2022/08/05 08:14:50;;;;;;;;;;;;;;;14.07;100.00;99534.00;6219580;23;19912;-90
2022/08/05 08:17:15;;;;;;;;;;;;;;;14.11;100.00;99556.00;6246609;23;19934;-92
2022/08/05 08:19:44;;;;;;;;;;;;;;;14.28;100.00;99585.13;6245532;23;19915;-89
2022/08/05 08:22:10;;;;;;;;;;;;;;;14.25;100.00;99579.09;6246367;23;19908;-91
2022/08/05 08:24:35;;;;;;;;;;;;;;;14.25;100.00;99595.09;6218606;23;19962;-93
2022/08/05 08:27:01;;;;;;;;;;;;;;;14.23;100.00;99603.22;6220072;23;19958;-91
2022/08/05 08:29:26;;;;;;;;;;;;;;;14.38;100.00;99627.22;6246059;23;19914;-88
2022/08/05 08:31:52;;;;;;;;;;;;;;;14.28;100.00;99614.44;6246402;23;20244;-90
2022/08/05 08:34:18;;;;;;;;;;;;;;;14.11;100.00;99614.59;6246069;23;19953;-91
2022/08/05 08:36:43;;;;;;;;;;;;;;;14.39;100.00;99618.22;6246345;23;19923;-88
2022/08/05 08:39:08;;;;;;;;;;;;;;;14.32;100.00;99607.94;6217926;23;19963;-91
2022/08/05 08:41:36;;;;;;;;;;;;;;;14.30;100.00;99617.00;6245921;23;20293;-89
2022/08/05 08:44:02;;;;;;;;;;;;;;;14.24;100.00;99594.25;6245965;23;19912;-89
2022/08/05 08:46:29;;;;;;;;;;;;;;;14.39;100.00;99603.13;6246024;23;19916;-89
2022/08/05 08:48:55;;;;;;;;;;;;;;;14.30;100.00;99598.34;6245542;23;19923;-91
2022/08/05 08:51:22;;;;;;;;;;;;;;;17.68;100.00;99600.41;6218828;23;19915;-87
2022/08/05 08:53:48;;;;;;;;;;;;;;;17.49;100.00;99590.22;6244438;23;19924;-90
2022/08/05 08:56:14;;;;;;;;;;;;;;;15.59;100.00;99608.81;6219028;23;20001;-92
2022/08/05 08:58:40;;;;;;;;;;;;;;;15.09;100.00;99623.66;6246191;23;20351;-91
2022/08/05 09:01:06;;;;;;;;;;;;;;;14.84;100.00;99635.03;6246328;23;20234;-92
2022/08/05 09:03:32;;;;;;;;;;;;;;;14.81;100.00;99645.91;6219373;23;19911;-92
2022/08/05 09:05:57;;;;;;;;;;;;;;;14.64;100.00;99650.47;6218359;23;19995;-92
2022/08/05 09:08:22;;;;;;;;;;;;;;;14.54;100.00;99651.97;6244330;23;19915;-92
2022/08/05 09:10:50;;;;;;;;;;;;;;;14.66;100.00;99653.03;6218840;23;20294;-92
2022/08/05 09:13:15;;;;;;;;;;;;;;;14.54;100.00;99654.63;6245353;23;19915;-91
2022/08/05 09:15:41;;;;;;;;;;;;;;;14.38;100.00;99638.72;6218676;23;19916;-92
2022/08/05 09:18:07;;;;;;;;;;;;;;;14.48;100.00;99633.66;6245418;23;19930;-91
2022/08/05 09:20:32;;;;;;;;;;;;;;;14.48;100.00;99625.66;6245426;23;19919;-90
2022/08/05 09:23:01;;;;;;;;;;;;;;;14.40;100.00;99623.47;6243770;23;19912;-92
2022/08/05 09:25:26;;;;;;;;;;;;;;;14.33;100.00;99625.66;6245363;23;19926;-90
2022/08/05 09:27:51;;;;;;;;;;;;;;;14.51;100.00;99628.16;6245322;23;19911;-92
2022/08/05 09:30:16;;;;;;;;;;;;;;;14.50;100.00;99621.09;6245271;23;20343;-91
2022/08/05 09:32:42;;;;;;;;;;;;;;;14.39;100.00;99621.78;6218375;23;19994;-90
2022/08/05 09:35:14;;;;;;;;;;;;;;;14.48;100.00;99623.84;6245946;23;19915;-90
2022/08/05 09:37:51;;;;;;;;;;;;;;;14.58;100.00;99624.13;6244002;23;19908;-89
2022/08/05 09:40:38;;;;;;;;;;;;;;;14.51;100.00;99622.81;6244967;23;19920;-90
2022/08/05 09:43:09;;;;;;;;;;;;;;;14.38;100.00;99619.22;6245526;23;19912;-89
2022/08/05 09:45:35;;;;;;;;;;;;;;;14.58;100.00;99615.28;6245317;23;19995;-91
2022/08/05 09:48:17;;;;;;;;;;;;;;;14.51;100.00;99604.16;6245123;23;19912;-90
2022/08/05 09:50:47;;;;;;;;;;;;;;;14.44;100.00;99626.81;6245221;23;20308;-92
2022/08/05 09:53:12;;;;;;;;;;;;;;;14.52;100.00;99635.22;6216295;23;20231;-91
2022/08/05 09:55:38;;;;;;;;;;;;;;;14.55;100.00;99632.34;6242257;23;19923;-90
2022/08/05 09:58:09;;;;;;;;;;;;;;;14.46;100.00;99638.25;6243972;23;20710;-90
2022/08/05 10:00:34;;;;;;;;;;;;;;;14.47;100.00;99626.63;6217514;23;19915;-90
2022/08/05 10:03:07;;;;;;;;;;;;;;;14.54;100.00;99625.28;6218757;23;20033;-90
2022/08/05 10:05:32;;;;;;;;;;;;;;;14.52;100.00;99627.22;6243035;23;20278;-92
2022/08/05 10:08:02;;;;;;;;;;;;;;;14.41;100.00;99632.31;6243422;23;19965;-93
2022/08/05 10:10:35;;;;;;;;;;;;;;;14.55;100.00;99632.34;6244866;23;19912;-94
2022/08/05 10:13:01;;;;;;;;;;;;;;;14.55;100.00;99629.69;6244297;23;19915;-93
2022/08/05 10:15:31;;;;;;;;;;;;;;;14.60;100.00;99627.63;6218567;23;19918;-91
2022/08/05 10:18:18;;;;;;;;;;;;;;;14.59;100.00;99630.34;6217930;23;20251;-91
2022/08/05 10:20:50;;;;;;;;;;;;;;;14.78;100.00;99646.09;6245516;23;19965;-89
2022/08/05 10:23:21;;;;;;;;;;;;;;;14.71;100.00;99641.13;6241820;23;19938;-89
2022/08/05 10:25:47;;;;;;;;;;;;;;;14.59;100.00;99652.53;6218352;23;19912;-90
2022/08/05 10:28:12;;;;;;;;;;;;;;;14.66;100.00;99647.69;6218415;23;19912;-89
2022/08/05 10:30:38;;;;;;;;;;;;;;;14.74;100.00;99661.41;6218841;23;19919;-91
2022/08/05 10:33:04;;;;;;;;;;;;;;;14.62;100.00;99651.53;6245087;23;19912;-89
2022/08/05 10:35:30;;;;;;;;;;;;;;;14.53;100.00;99645.78;6218292;23;19918;-91
2022/08/05 10:37:56;;;;;;;;;;;;;;;14.76;100.00;99642.66;6243369;23;19915;-89
2022/08/05 10:40:28;;;;;;;;;;;;;;;14.67;100.00;99650.28;6217964;23;19922;-91
2022/08/05 10:42:58;;;;;;;;;;;;;;;14.61;100.00;99663.97;6218302;23;20407;-90
2022/08/05 10:45:29;;;;;;;;;;;;;;;14.65;100.00;99662.84;6217338;23;19915;-91
2022/08/05 10:47:54;;;;;;;;;;;;;;;14.74;100.00;99666.75;6243780;23;19920;-87
2022/08/05 10:50:20;;;;;;;;;;;;;;;14.69;100.00;99661.72;6217534;23;19919;-90
2022/08/05 10:52:58;;;;;;;;;;;;;;;14.59;100.00;99665.84;6243274;23;19916;-90
2022/08/05 10:55:24;;;;;;;;;;;;;;;14.61;100.00;99665.78;6218610;23;19920;-90
2022/08/05 10:58:11;;;;;;;;;;;;;;;14.66;100.00;99663.69;6218663;23;20217;-89
2022/08/05 11:00:51;;;;;;;;;;;;;;;14.62;100.00;99668.38;6217978;23;19922;-90
2022/08/05 11:03:17;;;;;;;;;;;;;;;14.53;100.00;99675.09;6217742;23;19916;-89
2022/08/05 11:06:01;;;;;;;;;;;;;;;14.53;100.00;99674.22;6245148;23;19958;-89
2022/08/05 11:08:29;;;;;;;;;;;;;;;14.69;100.00;99675.06;6216332;23;19918;-90
2022/08/05 11:10:55;;;;;;;;;;;;;;;14.63;100.00;99670.09;6218576;23;19919;-91
2022/08/05 11:13:51;;;;;;;;;;;;;;;14.56;100.00;99673.19;6244836;23;19986;-90
2022/08/05 11:16:20;;;;;;;;;;;;;;;14.51;100.00;99678.81;6244958;23;19911;-91
2022/08/05 11:18:45;;;;;;;;;;;;;;;14.67;100.00;99674.28;6218169;23;19915;-89
2022/08/05 11:21:29;;;;;;;;;;;;;;;14.69;100.00;99675.06;6243470;23;19911;-90
2022/08/05 11:24:00;;;;;;;;;;;;;;;14.64;100.00;99687.78;6243366;23;19922;-89
2022/08/05 11:26:31;;;;;;;;;;;;;;;14.65;100.00;99696.66;6218872;23;19916;-92
2022/08/05 11:28:57;;;;;;;;;;;;;;;14.83;100.00;99714.19;6219616;23;19915;-89
2022/08/05 11:31:26;;;;;;;;;;;;;;;14.73;100.00;99722.84;6246800;23;19918;-91
2022/08/05 11:33:51;;;;;;;;;;;;;;;14.65;100.00;99726.84;6245198;23;19911;-91
2022/08/05 11:36:25;;;;;;;;;;;;;;;14.81;100.00;99728.59;6246240;23;19961;-90
2022/08/05 11:38:54;;;;;;;;;;;;;;;14.80;100.00;99740.19;6217580;23;19978;-92
2022/08/05 11:41:23;;;;;;;;;;;;;;;14.74;100.00;99729.91;6245015;23;19954;-91
2022/08/05 11:43:53;;;;;;;;;;;;;;;14.71;100.00;99718.47;6244902;23;19915;-91
2022/08/05 11:46:35;;;;;;;;;;;;;;;14.80;100.00;99726.88;6219944;23;19961;-89
2022/08/05 11:49:03;;;;;;;;;;;;;;;14.67;100.00;99734.75;6219557;23;19998;-90
2022/08/05 11:51:29;;;;;;;;;;;;;;;14.61;100.00;99741.31;6218940;23;20282;-89
2022/08/05 11:53:55;;;;;;;;;;;;;;;14.78;100.00;99742.09;6243168;23;19918;-91
2022/08/05 11:56:48;;;;;;;;;;;;;;;14.57;100.00;99750.41;6219800;23;19982;-91
2022/08/05 12:02:07;;;;;;;;;;;;;;;14.51;100.00;99748.13;6231369;23;19912;-89
2022/08/05 12:05:04;;;;;;;;;;;;;;;14.57;100.00;99742.41;6246094;23;20290;-91
2022/08/05 12:07:36;;;;;;;;;;;;;;;14.69;100.00;99725.72;6201706;23;20343;-90
2022/08/05 12:13:03;;;;;;;;;;;;;;;14.63;100.00;99717.22;6246379;23;20312;-91
2022/08/05 12:15:29;;;;;;;;;;;;;;;14.60;100.00;99712.94;6246652;23;19922;-90
2022/08/05 12:17:54;;;;;;;;;;;;;;;14.77;100.00;99713.72;6246209;23;19915;-91
2022/08/05 12:20:39;;;;;;;;;;;;;;;14.69;100.00;99728.38;6219679;23;19930;-92
2022/08/05 12:23:08;;;;;;;;;;;;;;;14.59;100.00;99732.50;6244569;23;19950;-91
2022/08/05 12:25:52;;;;;;;;;;;;;;;14.72;100.00;99722.00;6246354;23;19946;-91
2022/08/05 12:28:30;;;;;;;;;;;;;;;14.71;100.00;99726.47;6246232;23;19918;-90
2022/08/05 12:30:56;;;;;;;;;;;;;;;14.65;100.00;99721.50;6219583;23;19994;-92
2022/08/05 12:33:21;;;;;;;;;;;;;;;14.58;100.00;99720.13;6245009;23;19958;-90
2022/08/05 12:35:52;;;;;;;;;;;;;;;14.78;100.00;99724.28;6219582;23;19920;-91
2022/08/05 12:38:20;;;;;;;;;;;;;;;14.74;100.00;99720.09;6242596;23;19911;-90
2022/08/05 12:40:45;;;;;;;;;;;;;;;14.67;100.00;99713.41;6245213;23;19986;-89
2022/08/05 12:43:10;;;;;;;;;;;;;;;14.81;100.00;99723.25;6219470;23;19939;-90
2022/08/05 12:45:36;;;;;;;;;;;;;;;14.81;100.00;99717.91;6246162;23;19955;-92
2022/08/05 12:48:16;;;;;;;;;;;;;;;14.70;100.00;99719.41;6245909;23;20296;-93
2022/08/05 12:50:41;;;;;;;;;;;;;;;14.77;100.00;99729.72;6219194;23;19915;-90
2022/08/05 12:53:14;;;;;;;;;;;;;;;14.88;100.00;99727.25;6244313;23;20323;-90
2022/08/05 12:55:45;;;;;;;;;;;;;;;14.76;100.00;99725.31;6246073;23;20370;-90
2022/08/05 12:58:22;;;;;;;;;;;;;;;14.78;100.00;99736.78;6244908;23;20415;-90
2022/08/05 13:00:48;;;;;;;;;;;;;;;14.81;100.00;99725.91;6218818;23;19986;-92
2022/08/05 13:03:16;;;;;;;;;;;;;;;14.78;100.00;99721.63;6245832;23;20336;-91
2022/08/05 13:05:46;;;;;;;;;;;;;;;14.66;100.00;99717.91;6217632;23;19912;-91
2022/08/05 13:08:11;;;;;;;;;;;;;;;14.77;100.00;99724.38;6242520;23;19912;-91
2022/08/05 13:10:48;;;;;;;;;;;;;;;14.79;100.00;99728.69;6245424;23;19954;-90
2022/08/05 13:13:17;;;;;;;;;;;;;;;14.77;100.00;99719.03;6218959;23;19915;-89
2022/08/05 13:15:48;;;;;;;;;;;;;;;14.74;100.00;99721.91;6245476;23;20332;-89
2022/08/05 13:18:13;;;;;;;;;;;;;;;14.92;100.00;99723.44;6245664;23;19946;-92
2022/08/05 13:20:41;;;;;;;;;;;;;;;14.81;100.00;99720.59;6243706;23;19911;-90
2022/08/05 13:23:16;;;;;;;;;;;;;;;14.75;100.00;99724.47;6216795;23;19978;-89
2022/08/05 13:25:44;;;;;;;;;;;;;;;14.91;100.00;99719.06;6245578;23;19915;-91
2022/08/05 13:28:11;;;;;;;;;;;;;;;14.87;100.00;99720.19;6218298;23;19919;-91
2022/08/05 13:30:37;;;;;;;;;;;;;;;14.80;100.00;99724.19;6245641;23;19911;-89
2022/08/05 13:33:02;;;;;;;;;;;;;;;14.83;100.00;99730.19;6245337;23;20205;-91
2022/08/05 13:35:28;;;;;;;;;;;;;;;14.81;100.00;99721.44;6214766;23;20064;-89
2022/08/05 13:38:04;;;;;;;;;;;;;;;14.78;100.00;99736.78;6243518;23;20223;-90
2022/08/05 13:40:29;;;;;;;;;;;;;;;14.71;100.00;99725.63;6245007;23;19915;-91
2022/08/05 13:42:54;;;;;;;;;;;;;;;14.83;100.00;99729.34;6245182;23;19919;-90
2022/08/05 13:45:19;;;;;;;;;;;;;;;14.92;100.00;99718.13;6245224;23;20312;-90
2022/08/05 13:47:45;;;;;;;;;;;;;;;14.85;100.00;99722.97;6218207;23;19923;-91
2022/08/05 13:50:10;;;;;;;;;;;;;;;14.89;100.00;99727.16;6218813;23;20334;-90
2022/08/05 13:52:35;;;;;;;;;;;;;;;14.89;100.00;99728.97;6216671;23;20353;-90
2022/08/05 13:55:01;;;;;;;;;;;;;;;16.68;100.00;99722.69;6245261;23;19919;-87
2022/08/05 13:58:10;;;;;;;;;;;;;;;20.98;100.00;99710.78;6245587;23;19908;-94
2022/08/05 15:11:06;;;;;;;;;;;;;;;21.78;100.00;99708.22;6246240;22;20259;-93
2022/08/05 15:22:14;;;;;;;;;;;;;;;;;;;;;
2022/08/05 16:54:24;;;;;;;;;;;;;;;21.20;100.00;99784.28;6160511;22;19923;-89
2022/08/05 17:25:32;;;;;;;;;;;;;;;19.54;100.00;99781.00;6053289;22;19918;-85
2022/08/05 17:27:58;;;;;;;;;;;;;;;18.82;100.00;99789.34;6243594;23;19916;-84
2022/08/05 17:30:24;;;;;;;;;;;;;;;18.35;100.00;99792.00;6218043;23;19934;-84
2022/08/05 17:32:49;;;;;;;;;;;;;;;17.95;100.00;99805.69;6218220;23;19912;-83
2022/08/05 17:35:15;;;;;;;;;;;;;;;17.73;100.00;99798.34;6218048;23;19965;-84
2022/08/05 17:37:40;;;;;;;;;;;;;;;17.70;100.00;99801.22;6243606;23;19912;-84
2022/08/05 17:40:07;;;;;;;;;;;;;;;17.52;100.00;99803.38;6218033;23;20324;-84
2022/08/05 17:42:32;;;;;;;;;;;;;;;17.29;100.00;99802.38;6218551;23;20281;-84
2022/08/05 17:44:57;;;;;;;;;;;;;;;17.10;100.00;99802.78;6217800;23;19931;-85
2022/08/05 17:47:23;;;;;;;;;;;;;;;16.95;100.00;99794.88;6244937;23;19954;-84
2022/08/05 17:49:50;;;;;;;;;;;;;;;16.86;100.00;99798.19;6244619;23;19915;-84
2022/08/05 17:52:15;;;;;;;;;;;;;;;16.97;100.00;99802.78;6217924;23;20350;-84
2022/08/05 17:54:41;;;;;;;;;;;;;;;16.79;100.00;99805.75;6216413;23;19911;-84
2022/08/05 17:57:06;;;;;;;;;;;;;;;16.65;100.00;99824.56;6244817;23;19993;-83
2022/08/05 17:59:31;;;;;;;;;;;;;;;16.50;100.00;99821.09;6245389;23;19919;-84
2022/08/05 18:01:59;;;;;;;;;;;;;;;16.41;100.00;99822.56;6244498;23;19916;-84
2022/08/05 18:04:24;;;;;;;;;;;;;;;16.47;100.00;99822.16;6243296;23;20267;-84
2022/08/05 18:06:52;;;;;;;;;;;;;;;16.34;100.00;99824.78;6217277;23;19994;-84
2022/08/05 18:09:18;;;;;;;;;;;;;;;16.28;100.00;99832.34;6243565;23;19912;-84
2022/08/05 18:11:46;;;;;;;;;;;;;;;16.39;100.00;99835.19;6218356;23;19912;-86
2022/08/05 18:14:11;;;;;;;;;;;;;;;16.25;100.00;99833.41;6217021;23;19915;-84
2022/08/05 18:16:37;;;;;;;;;;;;;;;16.33;100.00;99838.25;6243712;23;19969;-85
2022/08/05 18:19:03;;;;;;;;;;;;;;;16.33;100.00;99846.28;6217383;23;19991;-84
2022/08/05 18:21:28;;;;;;;;;;;;;;;16.23;100.00;99850.53;6244292;23;19911;-85
2022/08/05 18:23:54;;;;;;;;;;;;;;;16.05;100.00;99853.44;6215755;23;19911;-86
2022/08/05 18:26:20;;;;;;;;;;;;;;;15.95;100.00;99852.28;6247165;22;20179;-86
2022/08/05 18:28:45;;;;;;;;;;;;;;;16.14;100.00;99862.66;6273122;22;19911;-84
2022/08/05 18:31:10;;;;;;;;;;;;;;;16.03;100.00;99870.50;6247563;22;20379;-84
2022/08/05 18:33:36;;;;;;;;;;;;;;;15.95;100.00;99868.31;6273049;22;19922;-84
2022/08/05 18:36:01;;;;;;;;;;;;;;;15.86;100.00;99863.56;6274524;22;19911;-85
2022/08/05 18:38:26;;;;;;;;;;;;;;;15.84;100.00;99870.81;6247320;22;19915;-85
2022/08/05 18:40:52;;;;;;;;;;;;;;;15.95;100.00;99879.84;6275488;22;20303;-84
2022/08/05 18:43:20;;;;;;;;;;;;;;;15.86;100.00;99877.81;6276471;22;19915;-84
2022/08/05 18:45:46;;;;;;;;;;;;;;;15.75;100.00;99888.28;6275029;22;19912;-84
2022/08/05 18:48:11;;;;;;;;;;;;;;;15.65;100.00;99884.44;6274606;22;20512;-85
2022/08/05 18:53:20;;;;;;;;;;;;;;;15.74;100.00;99892.72;6274404;22;19968;-84
2022/08/05 18:55:45;;;;;;;;;;;;;;;15.74;100.00;99900.75;6248594;22;20289;-83
2022/08/05 18:58:18;;;;;;;;;;;;;;;15.60;100.00;99896.28;6274969;22;19990;-83
2022/08/05 19:00:45;;;;;;;;;;;;;;;15.53;100.00;99904.78;6275772;22;19922;-84
2022/08/05 19:03:10;;;;;;;;;;;;;;;15.67;100.00;99910.13;6276201;22;20361;-83
2022/08/05 19:05:35;;;;;;;;;;;;;;;15.91;100.00;99915.75;6276529;22;19916;-85
2022/08/05 19:08:01;;;;;;;;;;;;;;;15.41;100.00;99917.03;6274889;22;19993;-85
2022/08/05 19:10:27;;;;;;;;;;;;;;;15.17;100.00;99930.94;6276086;22;19911;-82
2022/08/05 19:12:52;;;;;;;;;;;;;;;15.01;100.00;99938.13;6247681;22;19938;-84
2022/08/05 19:15:28;;;;;;;;;;;;;;;14.81;100.00;99947.31;6276053;22;19918;-82
2022/08/05 19:17:57;;;;;;;;;;;;;;;14.84;100.00;99957.78;6276198;22;19993;-83
2022/08/05 19:20:22;;;;;;;;;;;;;;;14.80;100.00;99966.91;6274524;22;19912;-83
2022/08/05 19:22:47;;;;;;;;;;;;;;;14.74;100.00;99975.25;6274612;22;19997;-83
2022/08/05 19:25:13;;;;;;;;;;;;;;;14.62;100.00;99977.69;6276034;22;19990;-84
2022/08/05 19:27:38;;;;;;;;;;;;;;;14.50;100.00;99987.22;6276093;22;19915;-84
2022/08/05 19:30:05;;;;;;;;;;;;;;;14.68;100.00;99993.34;6276269;22;20405;-85
2022/08/05 19:32:31;;;;;;;;;;;;;;;14.65;100.00;100004.19;6273934;22;20002;-85
2022/08/05 19:34:57;;;;;;;;;;;;;;;14.67;100.00;100002.28;6249329;22;19911;-84
2022/08/05 19:37:22;;;;;;;;;;;;;;;14.53;100.00;100012.81;6276031;22;19915;-86
2022/08/05 19:39:57;;;;;;;;;;;;;;;14.48;100.00;100022.88;6275499;22;19976;-85
2022/08/05 19:42:25;;;;;;;;;;;;;;;14.76;100.00;100026.69;6274611;22;19915;-85
2022/08/05 19:44:51;;;;;;;;;;;;;;;14.76;100.00;100022.25;6249276;22;19996;-84
2022/08/05 19:47:19;;;;;;;;;;;;;;;14.65;100.00;100024.66;6275988;22;19912;-83
2022/08/05 19:49:47;;;;;;;;;;;;;;;14.65;100.00;100041.50;6275655;22;20338;-89
2022/08/05 19:52:13;;;;;;;;;;;;;;;14.55;100.00;100042.94;6248475;22;19922;-83
2022/08/05 19:54:46;;;;;;;;;;;;;;;14.48;100.00;100055.72;6274237;22;20315;-84
2022/08/05 19:57:12;;;;;;;;;;;;;;;14.48;100.00;100054.88;6274255;22;19911;-83
2022/08/05 19:59:38;;;;;;;;;;;;;;;14.67;100.00;100060.09;6276114;22;19911;-83
2022/08/05 20:02:03;;;;;;;;;;;;;;;14.59;100.00;100068.47;6276454;22;19919;-83
2022/08/05 20:04:29;;;;;;;;;;;;;;;14.56;100.00;100073.13;6274814;22;19943;-87
2022/08/05 20:06:54;;;;;;;;;;;;;;;14.52;100.00;100069.78;6275918;22;20268;-85
2022/08/05 20:09:19;;;;;;;;;;;;;;;14.67;100.00;100071.59;6272912;22;19950;-84
2022/08/05 20:11:45;;;;;;;;;;;;;;;14.68;100.00;100089.34;6275520;22;19921;-86
2022/08/05 20:14:10;;;;;;;;;;;;;;;14.60;100.00;100086.25;6248585;22;19942;-85
2022/08/05 20:16:35;;;;;;;;;;;;;;;14.58;100.00;100090.75;6274832;22;20278;-84
2022/08/05 20:19:01;;;;;;;;;;;;;;;14.53;100.00;100093.69;6247467;22;19918;-84
2022/08/05 20:21:27;;;;;;;;;;;;;;;14.69;100.00;100098.19;6274863;22;19919;-83
2022/08/05 20:23:52;;;;;;;;;;;;;;;14.59;100.00;100094.28;6273864;22;20015;-83
2022/08/05 20:26:19;;;;;;;;;;;;;;;14.47;100.00;100102.03;6273454;22;19946;-85
2022/08/05 20:28:46;;;;;;;;;;;;;;;14.44;100.00;100106.63;6247243;22;19915;-83
2022/08/05 20:31:12;;;;;;;;;;;;;;;14.56;100.00;100111.31;6275320;22;19911;-84
2022/08/05 20:33:37;;;;;;;;;;;;;;;14.61;100.00;100111.09;6276071;22;20367;-83
2022/08/05 20:36:12;;;;;;;;;;;;;;;14.51;100.00;100118.69;6247455;22;19942;-83
2022/08/05 20:38:37;;;;;;;;;;;;;;;14.39;100.00;100112.25;6273878;22;19919;-83
2022/08/05 20:41:02;;;;;;;;;;;;;;;14.40;100.00;100129.09;6274925;22;19938;-83
2022/08/05 20:43:28;;;;;;;;;;;;;;;14.57;100.00;100133.50;6274836;22;19922;-83
2022/08/05 20:45:53;;;;;;;;;;;;;;;14.50;100.00;100135.63;6275009;22;19917;-83
2022/08/05 20:48:18;;;;;;;;;;;;;;;14.42;100.00;100140.50;6274864;22;20247;-84
2022/08/05 20:50:47;;;;;;;;;;;;;;;14.36;100.00;100147.06;6274892;22;19918;-85
2022/08/05 20:53:13;;;;;;;;;;;;;;;14.51;100.00;100146.22;6274520;22;19943;-83
2022/08/05 20:55:38;;;;;;;;;;;;;;;14.51;100.00;100151.53;6249237;22;20400;-83
2022/08/05 20:58:03;;;;;;;;;;;;;;;14.49;100.00;100155.25;6276318;22;19943;-84
2022/08/05 21:00:29;;;;;;;;;;;;;;;14.37;100.00;100164.75;6275339;22;19938;-84
2022/08/05 21:02:56;;;;;;;;;;;;;;;14.40;100.00;100161.06;6275300;22;19915;-83
2022/08/05 21:05:21;;;;;;;;;;;;;;;14.51;100.00;100164.03;6275627;22;20335;-83
2022/08/05 21:07:47;;;;;;;;;;;;;;;14.48;100.00;100167.69;6274566;22;19953;-83
2022/08/05 21:10:12;;;;;;;;;;;;;;;14.35;100.00;100162.16;6276059;22;20216;-87
2022/08/05 21:12:37;;;;;;;;;;;;;;;14.39;100.00;100170.00;6274427;22;19994;-84
2022/08/05 21:15:03;;;;;;;;;;;;;;;14.49;100.00;100179.25;6274829;22;19934;-84
2022/08/05 21:17:31;;;;;;;;;;;;;;;14.47;100.00;100175.78;6276008;22;19922;-88
2022/08/05 21:19:56;;;;;;;;;;;;;;;14.39;100.00;100183.31;6249312;22;19994;-84
2022/08/05 21:22:21;;;;;;;;;;;;;;;14.28;100.00;100184.75;6248957;22;20591;-86
2022/08/05 21:24:47;;;;;;;;;;;;;;;14.28;100.00;100184.75;6272729;22;19922;-84
2022/08/05 21:27:12;;;;;;;;;;;;;;;14.40;100.00;100193.06;6276013;22;19919;-84
2022/08/05 21:29:37;;;;;;;;;;;;;;;14.33;100.00;100190.72;6276276;22;19935;-84
2022/08/05 21:32:03;;;;;;;;;;;;;;;14.23;100.00;100194.81;6275791;22;19922;-84
2022/08/05 21:34:28;;;;;;;;;;;;;;;14.15;100.00;100192.53;6275699;22;19986;-83
2022/08/05 21:36:53;;;;;;;;;;;;;;;14.20;100.00;100192.28;6274565;22;19915;-84
2022/08/05 21:39:18;;;;;;;;;;;;;;;14.31;100.00;100183.72;6273767;22;19915;-84
2022/08/05 21:41:44;;;;;;;;;;;;;;;14.25;100.00;100192.91;6275636;22;19961;-84
2022/08/05 21:44:09;;;;;;;;;;;;;;;14.17;100.00;100195.13;6275904;22;20406;-84
2022/08/05 21:46:34;;;;;;;;;;;;;;;14.12;100.00;100197.13;6274641;22;19990;-85
2022/08/05 21:49:03;;;;;;;;;;;;;;;14.21;100.00;100195.81;6275839;22;20542;-87
2022/08/05 21:51:28;;;;;;;;;;;;;;;14.25;100.00;100198.25;6274116;22;19960;-86
2022/08/05 21:53:53;;;;;;;;;;;;;;;14.18;100.00;100202.16;6274047;22;19998;-85
2022/08/05 21:56:21;;;;;;;;;;;;;;;14.15;100.00;100202.31;6274262;22;19911;-87
2022/08/05 21:58:46;;;;;;;;;;;;;;;14.07;100.00;100202.72;6274365;22;19911;-85
2022/08/05 22:01:15;;;;;;;;;;;;;;;14.23;100.00;100200.13;6274907;22;19986;-88
2022/08/05 22:03:41;;;;;;;;;;;;;;;14.24;100.00;100206.31;6247768;22;19911;-87
2022/08/05 22:06:06;;;;;;;;;;;;;;;14.15;100.00;100204.97;6273665;22;19977;-88
2022/08/05 22:08:34;;;;;;;;;;;;;;;14.07;100.00;100199.19;6273629;22;19941;-87
2022/08/05 22:10:59;;;;;;;;;;;;;;;14.04;100.00;100199.31;6246916;22;19918;-87
2022/08/05 22:13:25;;;;;;;;;;;;;;;14.18;100.00;100207.47;6248108;22;19907;-87
2022/08/05 22:15:50;;;;;;;;;;;;;;;14.22;100.00;100205.53;6275711;22;19915;-85
2022/08/05 22:18:15;;;;;;;;;;;;;;;14.22;100.00;100203.72;6275431;22;19993;-86
2022/08/05 22:20:55;;;;;;;;;;;;;;;14.11;100.00;100208.75;6248710;22;20303;-90
2022/08/05 22:28:56;;;;;;;;;;;;;;;14.11;100.00;100216.75;6276004;22;19919;-87
2022/08/05 22:31:29;;;;;;;;;;;;;;;14.23;100.00;100210.78;6275302;22;19915;-87
2022/08/05 22:33:57;;;;;;;;;;;;;;;14.17;100.00;100211.09;6248434;22;19998;-86
2022/08/05 22:36:22;;;;;;;;;;;;;;;14.09;100.00;100216.81;6248786;22;19914;-86
2022/08/05 22:38:47;;;;;;;;;;;;;;;14.03;100.00;100222.47;6247543;22;19919;-86
2022/08/05 22:41:15;;;;;;;;;;;;;;;14.07;100.00;100221.38;6248685;22;19974;-88
2022/08/05 22:43:40;;;;;;;;;;;;;;;14.20;100.00;100221.63;6274121;22;19927;-87
2022/08/05 22:46:06;;;;;;;;;;;;;;;14.14;100.00;100222.78;6275260;22;19915;-87
2022/08/05 22:48:31;;;;;;;;;;;;;;;14.04;100.00;100226.84;6248101;22;20334;-87
2022/08/05 22:50:59;;;;;;;;;;;;;;;13.95;100.00;100233.50;6248238;22;19951;-89
2022/08/05 22:53:27;;;;;;;;;;;;;;;14.14;100.00;100237.91;6272460;22;19911;-85
2022/08/05 22:55:54;;;;;;;;;;;;;;;14.15;100.00;100239.59;6275466;22;20216;-86
2022/08/05 22:58:20;;;;;;;;;;;;;;;14.09;100.00;100245.28;6275192;22;20319;-88
2022/08/05 23:00:46;;;;;;;;;;;;;;;14.07;100.00;100241.81;6247185;22;19998;-87
2022/08/05 23:03:11;;;;;;;;;;;;;;;14.08;100.00;100246.22;6275207;22;20002;-86
2022/08/05 23:05:36;;;;;;;;;;;;;;;14.27;100.00;100249.66;6275541;22;19915;-85
2022/08/05 23:08:02;;;;;;;;;;;;;;;14.21;100.00;100246.44;6273675;22;19911;-86
2022/08/05 23:10:27;;;;;;;;;;;;;;;14.13;100.00;100245.00;6275355;22;19915;-86
2022/08/05 23:12:52;;;;;;;;;;;;;;;14.14;100.00;100251.22;6247642;22;20044;-87
2022/08/05 23:15:18;;;;;;;;;;;;;;;14.31;100.00;100251.25;6247087;22;19915;-85
2022/08/05 23:17:43;;;;;;;;;;;;;;;14.26;100.00;100250.59;6274874;22;19923;-85
2022/08/05 23:20:09;;;;;;;;;;;;;;;14.20;100.00;100255.38;6275120;22;19919;-85
2022/08/05 23:22:34;;;;;;;;;;;;;;;14.11;100.00;100254.91;6273983;22;20243;-85
2022/08/05 23:24:59;;;;;;;;;;;;;;;14.19;100.00;100259.84;6276222;22;19915;-85
2022/08/05 23:27:25;;;;;;;;;;;;;;;14.26;100.00;100258.59;6276797;22;19915;-84
2022/08/05 23:29:50;;;;;;;;;;;;;;;14.20;100.00;100260.69;6277258;22;19915;-85
2022/08/05 23:32:15;;;;;;;;;;;;;;;14.14;100.00;100261.88;6249376;22;19915;-85
2022/08/05 23:34:41;;;;;;;;;;;;;;;14.06;100.00;100258.75;6277057;22;19911;-85
2022/08/05 23:37:06;;;;;;;;;;;;;;;14.21;100.00;100262.44;6277293;22;20316;-89
2022/08/05 23:39:34;;;;;;;;;;;;;;;14.19;100.00;100261.66;6248692;22;19994;-87
2022/08/05 23:42:02;;;;;;;;;;;;;;;14.09;100.00;100261.25;6275178;22;19915;-88
2022/08/05 23:44:29;;;;;;;;;;;;;;;13.98;100.00;100265.31;6276353;22;19912;-85
2022/08/05 23:46:54;;;;;;;;;;;;;;;14.13;100.00;100268.16;6276632;22;20341;-85
